sensor_id;sensor_type;location;lat;lon;timestamp;P1;durP1;ratioP1;P2;durP2;ratioP2
24559;SDS011;12727;49.934;8.656;2023-03-01T00:01:47;20.00;;;10.93;;
24559;SDS011;12727;49.934;8.656;2023-03-01T00:04:13;18.63;;;10.55;;
24559;SDS011;12727;49.934;8.656;2023-03-01T00:06:39;21.08;;;11.07;;
24559;SDS011;12727;49.934;8.656;2023-03-01T00:09:04;17.75;;;10.48;;
24559;SDS011;12727;49.934;8.656;2023-03-01T00:11:31;20.08;;;11.32;;
24559;SDS011;12727;49.934;8.656;2023-03-01T00:13:58;21.67;;;11.75;;
24559;SDS011;12727;49.934;8.656;2023-03-01T00:16:29;20.38;;;11.15;;
24559;SDS011;12727;49.934;8.656;2023-03-01T00:18:58;21.25;;;11.10;;
24559;SDS011;12727;49.934;8.656;2023-03-01T00:21:25;20.52;;;11.48;;
24559;SDS011;12727;49.934;8.656;2023-03-01T00:23:51;21.95;;;11.27;;
24559;SDS011;12727;49.934;8.656;2023-03-01T00:26:18;20.80;;;10.88;;
24559;SDS011;12727;49.934;8.656;2023-03-01T00:28:44;18.05;;;11.25;;
24559;SDS011;12727;49.934;8.656;2023-03-01T00:31:12;21.30;;;11.82;;
24559;SDS011;12727;49.934;8.656;2023-03-01T00:33:39;20.40;;;11.38;;
24559;SDS011;12727;49.934;8.656;2023-03-01T00:36:05;21.33;;;10.90;;
24559;SDS011;12727;49.934;8.656;2023-03-01T00:38:34;20.63;;;11.32;;
24559;SDS011;12727;49.934;8.656;2023-03-01T00:41:05;23.50;;;11.60;;
24559;SDS011;12727;49.934;8.656;2023-03-01T00:43:32;23.88;;;11.82;;
24559;SDS011;12727;49.934;8.656;2023-03-01T00:46:01;20.98;;;12.07;;
24559;SDS011;12727;49.934;8.656;2023-03-01T00:48:29;21.08;;;12.25;;
24559;SDS011;12727;49.934;8.656;2023-03-01T00:50:55;20.23;;;11.52;;
24559;SDS011;12727;49.934;8.656;2023-03-01T00:53:20;19.75;;;11.65;;
24559;SDS011;12727;49.934;8.656;2023-03-01T00:55:46;21.05;;;11.55;;
24559;SDS011;12727;49.934;8.656;2023-03-01T00:58:11;21.67;;;12.52;;
24559;SDS011;12727;49.934;8.656;2023-03-01T01:00:37;23.63;;;12.02;;
24559;SDS011;12727;49.934;8.656;2023-03-01T01:03:02;21.98;;;12.75;;
24559;SDS011;12727;49.934;8.656;2023-03-01T01:05:28;20.88;;;11.68;;
24559;SDS011;12727;49.934;8.656;2023-03-01T01:07:53;23.17;;;11.70;;
24559;SDS011;12727;49.934;8.656;2023-03-01T01:10:19;22.15;;;11.82;;
24559;SDS011;12727;49.934;8.656;2023-03-01T01:12:45;20.05;;;11.30;;
24559;SDS011;12727;49.934;8.656;2023-03-01T01:15:10;20.42;;;11.45;;
24559;SDS011;12727;49.934;8.656;2023-03-01T01:17:39;18.98;;;10.80;;
24559;SDS011;12727;49.934;8.656;2023-03-01T01:20:05;22.85;;;11.35;;
24559;SDS011;12727;49.934;8.656;2023-03-01T01:22:32;18.65;;;10.82;;
24559;SDS011;12727;49.934;8.656;2023-03-01T01:24:58;19.13;;;11.20;;
24559;SDS011;12727;49.934;8.656;2023-03-01T01:27:23;18.30;;;10.02;;
24559;SDS011;12727;49.934;8.656;2023-03-01T01:29:49;24.75;;;11.95;;
24559;SDS011;12727;49.934;8.656;2023-03-01T01:32:15;19.77;;;10.88;;
24559;SDS011;12727;49.934;8.656;2023-03-01T01:34:40;22.05;;;12.32;;
24559;SDS011;12727;49.934;8.656;2023-03-01T01:37:06;22.58;;;12.75;;
24559;SDS011;12727;49.934;8.656;2023-03-01T01:39:33;24.13;;;12.52;;
24559;SDS011;12727;49.934;8.656;2023-03-01T01:42:00;25.38;;;13.23;;
24559;SDS011;12727;49.934;8.656;2023-03-01T01:44:27;22.13;;;11.98;;
24559;SDS011;12727;49.934;8.656;2023-03-01T01:49:44;24.77;;;13.68;;
24559;SDS011;12727;49.934;8.656;2023-03-01T01:52:14;21.95;;;12.20;;
24559;SDS011;12727;49.934;8.656;2023-03-01T01:55:03;22.88;;;12.15;;
24559;SDS011;12727;49.934;8.656;2023-03-01T01:57:46;23.05;;;12.30;;
24559;SDS011;12727;49.934;8.656;2023-03-01T02:00:16;25.88;;;12.52;;
24559;SDS011;12727;49.934;8.656;2023-03-01T02:02:46;23.80;;;11.88;;
24559;SDS011;12727;49.934;8.656;2023-03-01T02:07:57;26.88;;;12.45;;
24559;SDS011;12727;49.934;8.656;2023-03-01T02:10:24;21.77;;;11.75;;
24559;SDS011;12727;49.934;8.656;2023-03-01T02:12:51;24.02;;;12.80;;
24559;SDS011;12727;49.934;8.656;2023-03-01T02:15:17;23.38;;;12.40;;
24559;SDS011;12727;49.934;8.656;2023-03-01T02:17:43;25.33;;;13.63;;
24559;SDS011;12727;49.934;8.656;2023-03-01T02:22:59;27.13;;;12.57;;
24559;SDS011;12727;49.934;8.656;2023-03-01T02:30:42;22.67;;;12.38;;
24559;SDS011;12727;49.934;8.656;2023-03-01T02:33:28;24.02;;;12.63;;
24559;SDS011;12727;49.934;8.656;2023-03-01T02:35:57;25.15;;;12.90;;
24559;SDS011;12727;49.934;8.656;2023-03-01T02:38:25;23.38;;;12.18;;
24559;SDS011;12727;49.934;8.656;2023-03-01T02:40:52;24.40;;;12.68;;
24559;SDS011;12727;49.934;8.656;2023-03-01T02:43:19;25.98;;;12.80;;
24559;SDS011;12727;49.934;8.656;2023-03-01T02:45:51;26.33;;;13.77;;
24559;SDS011;12727;49.934;8.656;2023-03-01T02:48:18;25.92;;;13.75;;
24559;SDS011;12727;49.934;8.656;2023-03-01T02:56:42;23.92;;;13.05;;
24559;SDS011;12727;49.934;8.656;2023-03-01T02:59:09;25.55;;;13.95;;
24559;SDS011;12727;49.934;8.656;2023-03-01T03:01:35;25.45;;;13.45;;
24559;SDS011;12727;49.934;8.656;2023-03-01T03:04:05;22.90;;;13.30;;
24559;SDS011;12727;49.934;8.656;2023-03-01T03:06:32;23.13;;;12.82;;
24559;SDS011;12727;49.934;8.656;2023-03-01T03:08:58;26.50;;;13.65;;
24559;SDS011;12727;49.934;8.656;2023-03-01T03:11:24;22.63;;;13.20;;
24559;SDS011;12727;49.934;8.656;2023-03-01T03:13:50;24.50;;;13.23;;
24559;SDS011;12727;49.934;8.656;2023-03-01T03:16:17;23.42;;;13.30;;
24559;SDS011;12727;49.934;8.656;2023-03-01T03:18:43;26.80;;;13.52;;
24559;SDS011;12727;49.934;8.656;2023-03-01T03:21:09;24.10;;;12.80;;
24559;SDS011;12727;49.934;8.656;2023-03-01T03:23:36;24.70;;;13.77;;
24559;SDS011;12727;49.934;8.656;2023-03-01T03:26:02;23.30;;;12.98;;
24559;SDS011;12727;49.934;8.656;2023-03-01T03:28:29;28.40;;;14.13;;
24559;SDS011;12727;49.934;8.656;2023-03-01T03:30:59;25.02;;;13.13;;
24559;SDS011;12727;49.934;8.656;2023-03-01T03:33:31;25.05;;;13.70;;
24559;SDS011;12727;49.934;8.656;2023-03-01T03:35:56;25.02;;;14.02;;
24559;SDS011;12727;49.934;8.656;2023-03-01T03:38:22;27.98;;;14.27;;
24559;SDS011;12727;49.934;8.656;2023-03-01T03:40:52;25.33;;;13.25;;
24559;SDS011;12727;49.934;8.656;2023-03-01T03:45:58;29.02;;;13.68;;
24559;SDS011;12727;49.934;8.656;2023-03-01T03:48:24;23.45;;;13.60;;
24559;SDS011;12727;49.934;8.656;2023-03-01T03:50:51;26.33;;;13.60;;
24559;SDS011;12727;49.934;8.656;2023-03-01T03:53:18;26.42;;;14.18;;
24559;SDS011;12727;49.934;8.656;2023-03-01T03:55:44;25.08;;;13.85;;
24559;SDS011;12727;49.934;8.656;2023-03-01T03:58:10;22.15;;;13.13;;
24559;SDS011;12727;49.934;8.656;2023-03-01T04:00:37;27.00;;;12.52;;
24559;SDS011;12727;49.934;8.656;2023-03-01T04:03:05;24.13;;;13.75;;
24559;SDS011;12727;49.934;8.656;2023-03-01T04:05:31;26.05;;;13.77;;
24559;SDS011;12727;49.934;8.656;2023-03-01T04:07:57;25.95;;;13.30;;
24559;SDS011;12727;49.934;8.656;2023-03-01T04:10:32;22.52;;;12.18;;
24559;SDS011;12727;49.934;8.656;2023-03-01T04:13:01;24.67;;;13.18;;
24559;SDS011;12727;49.934;8.656;2023-03-01T04:15:27;28.05;;;14.77;;
24559;SDS011;12727;49.934;8.656;2023-03-01T04:17:53;26.15;;;12.90;;
24559;SDS011;12727;49.934;8.656;2023-03-01T04:20:21;27.20;;;14.23;;
24559;SDS011;12727;49.934;8.656;2023-03-01T04:22:53;24.75;;;13.38;;
24559;SDS011;12727;49.934;8.656;2023-03-01T04:25:22;25.58;;;14.25;;
24559;SDS011;12727;49.934;8.656;2023-03-01T04:27:48;25.98;;;15.18;;
24559;SDS011;12727;49.934;8.656;2023-03-01T04:30:14;25.13;;;13.95;;
24559;SDS011;12727;49.934;8.656;2023-03-01T04:32:40;27.35;;;14.38;;
24559;SDS011;12727;49.934;8.656;2023-03-01T04:35:05;24.73;;;13.13;;
24559;SDS011;12727;49.934;8.656;2023-03-01T04:37:31;25.88;;;14.90;;
24559;SDS011;12727;49.934;8.656;2023-03-01T04:39:57;25.45;;;14.07;;
24559;SDS011;12727;49.934;8.656;2023-03-01T04:42:23;25.13;;;14.15;;
24559;SDS011;12727;49.934;8.656;2023-03-01T04:44:48;27.13;;;14.23;;
24559;SDS011;12727;49.934;8.656;2023-03-01T04:47:16;29.25;;;14.35;;
24559;SDS011;12727;49.934;8.656;2023-03-01T04:49:42;24.92;;;14.20;;
24559;SDS011;12727;49.934;8.656;2023-03-01T04:52:07;25.05;;;14.80;;
24559;SDS011;12727;49.934;8.656;2023-03-01T04:54:34;31.00;;;14.80;;
24559;SDS011;12727;49.934;8.656;2023-03-01T04:57:01;26.15;;;13.98;;
24559;SDS011;12727;49.934;8.656;2023-03-01T04:59:28;27.30;;;14.90;;
24559;SDS011;12727;49.934;8.656;2023-03-01T05:01:54;28.65;;;14.38;;
24559;SDS011;12727;49.934;8.656;2023-03-01T05:04:21;25.48;;;14.82;;
24559;SDS011;12727;49.934;8.656;2023-03-01T05:06:48;24.60;;;13.98;;
24559;SDS011;12727;49.934;8.656;2023-03-01T05:09:13;26.30;;;14.60;;
24559;SDS011;12727;49.934;8.656;2023-03-01T05:11:39;29.10;;;15.00;;
24559;SDS011;12727;49.934;8.656;2023-03-01T05:14:05;24.98;;;13.85;;
24559;SDS011;12727;49.934;8.656;2023-03-01T05:16:32;25.45;;;14.35;;
24559;SDS011;12727;49.934;8.656;2023-03-01T05:18:59;25.48;;;14.40;;
24559;SDS011;12727;49.934;8.656;2023-03-01T05:21:24;26.38;;;14.25;;
24559;SDS011;12727;49.934;8.656;2023-03-01T05:23:50;26.83;;;14.48;;
24559;SDS011;12727;49.934;8.656;2023-03-01T05:26:17;26.13;;;14.25;;
24559;SDS011;12727;49.934;8.656;2023-03-01T05:28:44;24.27;;;13.50;;
24559;SDS011;12727;49.934;8.656;2023-03-01T05:31:10;22.95;;;12.35;;
24559;SDS011;12727;49.934;8.656;2023-03-01T05:33:39;28.00;;;14.45;;
24559;SDS011;12727;49.934;8.656;2023-03-01T05:36:06;24.58;;;13.90;;
24559;SDS011;12727;49.934;8.656;2023-03-01T05:38:33;24.40;;;14.05;;
24559;SDS011;12727;49.934;8.656;2023-03-01T05:40:59;26.33;;;14.55;;
24559;SDS011;12727;49.934;8.656;2023-03-01T05:43:24;25.88;;;15.02;;
24559;SDS011;12727;49.934;8.656;2023-03-01T05:45:50;28.23;;;13.85;;
24559;SDS011;12727;49.934;8.656;2023-03-01T05:48:16;25.42;;;14.20;;
24559;SDS011;12727;49.934;8.656;2023-03-01T05:50:44;25.17;;;13.18;;
24559;SDS011;12727;49.934;8.656;2023-03-01T05:53:16;26.90;;;14.45;;
24559;SDS011;12727;49.934;8.656;2023-03-01T05:55:44;29.98;;;13.73;;
24559;SDS011;12727;49.934;8.656;2023-03-01T05:58:13;27.65;;;15.20;;
24559;SDS011;12727;49.934;8.656;2023-03-01T06:00:41;26.60;;;14.45;;
24559;SDS011;12727;49.934;8.656;2023-03-01T06:03:09;27.63;;;15.20;;
24559;SDS011;12727;49.934;8.656;2023-03-01T06:05:37;24.60;;;14.10;;
24559;SDS011;12727;49.934;8.656;2023-03-01T06:08:04;26.92;;;13.38;;
24559;SDS011;12727;49.934;8.656;2023-03-01T06:10:30;26.10;;;14.70;;
24559;SDS011;12727;49.934;8.656;2023-03-01T06:12:55;28.15;;;14.38;;
24559;SDS011;12727;49.934;8.656;2023-03-01T06:15:21;26.05;;;14.38;;
24559;SDS011;12727;49.934;8.656;2023-03-01T06:17:47;28.70;;;14.13;;
24559;SDS011;12727;49.934;8.656;2023-03-01T06:20:14;24.63;;;13.80;;
24559;SDS011;12727;49.934;8.656;2023-03-01T06:22:42;27.55;;;14.73;;
24559;SDS011;12727;49.934;8.656;2023-03-01T06:25:09;27.10;;;14.75;;
24559;SDS011;12727;49.934;8.656;2023-03-01T06:27:35;24.75;;;14.10;;
24559;SDS011;12727;49.934;8.656;2023-03-01T06:30:05;27.73;;;15.07;;
24559;SDS011;12727;49.934;8.656;2023-03-01T06:32:31;27.45;;;14.52;;
24559;SDS011;12727;49.934;8.656;2023-03-01T06:34:57;27.88;;;15.30;;
24559;SDS011;12727;49.934;8.656;2023-03-01T06:37:25;27.70;;;15.00;;
24559;SDS011;12727;49.934;8.656;2023-03-01T06:39:51;24.77;;;14.43;;
24559;SDS011;12727;49.934;8.656;2023-03-01T06:42:17;26.15;;;14.35;;
24559;SDS011;12727;49.934;8.656;2023-03-01T06:44:43;30.00;;;15.43;;
24559;SDS011;12727;49.934;8.656;2023-03-01T06:47:09;26.52;;;14.52;;
24559;SDS011;12727;49.934;8.656;2023-03-01T06:49:35;24.30;;;14.27;;
24559;SDS011;12727;49.934;8.656;2023-03-01T06:52:00;28.08;;;14.82;;
24559;SDS011;12727;49.934;8.656;2023-03-01T06:54:26;24.83;;;14.68;;
24559;SDS011;12727;49.934;8.656;2023-03-01T06:56:51;28.70;;;14.65;;
24559;SDS011;12727;49.934;8.656;2023-03-01T06:59:17;25.77;;;14.77;;
24559;SDS011;12727;49.934;8.656;2023-03-01T07:01:43;27.77;;;14.85;;
24559;SDS011;12727;49.934;8.656;2023-03-01T07:04:09;28.55;;;15.57;;
24559;SDS011;12727;49.934;8.656;2023-03-01T07:06:35;23.88;;;14.52;;
24559;SDS011;12727;49.934;8.656;2023-03-01T07:09:01;27.58;;;15.20;;
24559;SDS011;12727;49.934;8.656;2023-03-01T07:11:26;25.90;;;15.00;;
24559;SDS011;12727;49.934;8.656;2023-03-01T07:13:52;25.23;;;14.02;;
24559;SDS011;12727;49.934;8.656;2023-03-01T07:16:17;24.58;;;13.90;;
24559;SDS011;12727;49.934;8.656;2023-03-01T07:18:45;25.02;;;14.60;;
24559;SDS011;12727;49.934;8.656;2023-03-01T07:21:11;27.48;;;14.13;;
24559;SDS011;12727;49.934;8.656;2023-03-01T07:23:39;23.95;;;13.70;;
24559;SDS011;12727;49.934;8.656;2023-03-01T07:26:04;23.02;;;13.88;;
24559;SDS011;12727;49.934;8.656;2023-03-01T07:28:30;24.10;;;13.40;;
24559;SDS011;12727;49.934;8.656;2023-03-01T07:31:01;24.50;;;14.60;;
24559;SDS011;12727;49.934;8.656;2023-03-01T07:33:27;21.27;;;13.50;;
24559;SDS011;12727;49.934;8.656;2023-03-01T07:35:57;24.42;;;13.68;;
24559;SDS011;12727;49.934;8.656;2023-03-01T07:38:24;23.52;;;13.43;;
24559;SDS011;12727;49.934;8.656;2023-03-01T07:40:50;21.55;;;13.50;;
24559;SDS011;12727;49.934;8.656;2023-03-01T07:43:15;22.05;;;11.93;;
24559;SDS011;12727;49.934;8.656;2023-03-01T07:45:41;24.13;;;13.57;;
24559;SDS011;12727;49.934;8.656;2023-03-01T07:48:06;21.10;;;12.50;;
24559;SDS011;12727;49.934;8.656;2023-03-01T07:50:32;21.52;;;13.35;;
24559;SDS011;12727;49.934;8.656;2023-03-01T07:52:57;22.27;;;13.65;;
24559;SDS011;12727;49.934;8.656;2023-03-01T07:55:23;22.75;;;14.27;;
24559;SDS011;12727;49.934;8.656;2023-03-01T07:57:48;23.15;;;14.32;;
24559;SDS011;12727;49.934;8.656;2023-03-01T08:00:14;21.58;;;14.20;;
24559;SDS011;12727;49.934;8.656;2023-03-01T08:02:40;24.17;;;13.68;;
24559;SDS011;12727;49.934;8.656;2023-03-01T08:05:07;23.58;;;14.80;;
24559;SDS011;12727;49.934;8.656;2023-03-01T08:07:34;21.52;;;13.10;;
24559;SDS011;12727;49.934;8.656;2023-03-01T08:09:59;19.80;;;12.95;;
24559;SDS011;12727;49.934;8.656;2023-03-01T08:12:25;18.83;;;13.20;;
24559;SDS011;12727;49.934;8.656;2023-03-01T08:14:52;19.48;;;13.63;;
24559;SDS011;12727;49.934;8.656;2023-03-01T08:17:18;21.88;;;12.75;;
24559;SDS011;12727;49.934;8.656;2023-03-01T08:19:44;21.08;;;13.07;;
24559;SDS011;12727;49.934;8.656;2023-03-01T08:22:09;19.60;;;13.32;;
24559;SDS011;12727;49.934;8.656;2023-03-01T08:24:35;20.15;;;13.20;;
24559;SDS011;12727;49.934;8.656;2023-03-01T08:27:01;19.25;;;12.40;;
24559;SDS011;12727;49.934;8.656;2023-03-01T08:29:30;21.20;;;13.63;;
24559;SDS011;12727;49.934;8.656;2023-03-01T08:31:56;20.98;;;12.75;;
24559;SDS011;12727;49.934;8.656;2023-03-01T08:34:23;19.10;;;13.50;;
24559;SDS011;12727;49.934;8.656;2023-03-01T08:36:48;18.05;;;13.10;;
24559;SDS011;12727;49.934;8.656;2023-03-01T08:39:17;19.02;;;12.68;;
24559;SDS011;12727;49.934;8.656;2023-03-01T08:41:44;20.55;;;14.18;;
24559;SDS011;12727;49.934;8.656;2023-03-01T08:44:11;17.83;;;13.20;;
24559;SDS011;12727;49.934;8.656;2023-03-01T08:46:39;18.45;;;12.65;;
24559;SDS011;12727;49.934;8.656;2023-03-01T08:49:06;18.83;;;13.55;;
24559;SDS011;12727;49.934;8.656;2023-03-01T08:51:33;18.48;;;12.45;;
24559;SDS011;12727;49.934;8.656;2023-03-01T08:54:02;17.90;;;13.43;;
24559;SDS011;12727;49.934;8.656;2023-03-01T08:56:34;21.30;;;13.05;;
24559;SDS011;12727;49.934;8.656;2023-03-01T08:59:00;23.48;;;12.98;;
24559;SDS011;12727;49.934;8.656;2023-03-01T09:01:26;19.98;;;12.95;;
24559;SDS011;12727;49.934;8.656;2023-03-01T09:03:51;17.30;;;13.57;;
24559;SDS011;12727;49.934;8.656;2023-03-01T09:06:17;20.65;;;13.25;;
24559;SDS011;12727;49.934;8.656;2023-03-01T09:08:44;19.45;;;13.18;;
24559;SDS011;12727;49.934;8.656;2023-03-01T09:11:12;19.52;;;13.73;;
24559;SDS011;12727;49.934;8.656;2023-03-01T09:13:40;22.15;;;13.77;;
24559;SDS011;12727;49.934;8.656;2023-03-01T09:16:06;20.25;;;13.35;;
24559;SDS011;12727;49.934;8.656;2023-03-01T09:18:32;19.23;;;12.98;;
24559;SDS011;12727;49.934;8.656;2023-03-01T09:23:32;17.70;;;13.30;;
24559;SDS011;12727;49.934;8.656;2023-03-01T09:25:59;18.70;;;13.15;;
24559;SDS011;12727;49.934;8.656;2023-03-01T09:28:24;16.95;;;13.23;;
24559;SDS011;12727;49.934;8.656;2023-03-01T09:30:50;19.00;;;13.15;;
24559;SDS011;12727;49.934;8.656;2023-03-01T09:33:17;18.10;;;13.55;;
24559;SDS011;12727;49.934;8.656;2023-03-01T09:35:42;19.17;;;14.15;;
24559;SDS011;12727;49.934;8.656;2023-03-01T09:38:12;18.83;;;13.50;;
24559;SDS011;12727;49.934;8.656;2023-03-01T09:40:41;18.83;;;13.70;;
24559;SDS011;12727;49.934;8.656;2023-03-01T09:46:11;18.30;;;13.15;;
24559;SDS011;12727;49.934;8.656;2023-03-01T09:48:42;19.30;;;13.35;;
24559;SDS011;12727;49.934;8.656;2023-03-01T09:51:19;20.85;;;14.13;;
24559;SDS011;12727;49.934;8.656;2023-03-01T09:53:51;20.52;;;12.98;;
24559;SDS011;12727;49.934;8.656;2023-03-01T09:56:20;20.80;;;13.45;;
24559;SDS011;12727;49.934;8.656;2023-03-01T09:58:54;18.92;;;14.05;;
24559;SDS011;12727;49.934;8.656;2023-03-01T10:09:53;20.25;;;14.30;;
24559;SDS011;12727;49.934;8.656;2023-03-01T10:12:20;22.42;;;14.60;;
24559;SDS011;12727;49.934;8.656;2023-03-01T10:17:34;19.25;;;13.20;;
24559;SDS011;12727;49.934;8.656;2023-03-01T10:22:52;18.48;;;14.45;;
24559;SDS011;12727;49.934;8.656;2023-03-01T10:25:25;18.30;;;13.55;;
24559;SDS011;12727;49.934;8.656;2023-03-01T10:28:30;20.38;;;14.07;;
24559;SDS011;12727;49.934;8.656;2023-03-01T10:31:11;21.65;;;14.32;;
24559;SDS011;12727;49.934;8.656;2023-03-01T10:33:40;18.02;;;13.60;;
24559;SDS011;12727;49.934;8.656;2023-03-01T10:36:07;21.13;;;13.88;;
24559;SDS011;12727;49.934;8.656;2023-03-01T10:38:47;17.42;;;13.50;;
24559;SDS011;12727;49.934;8.656;2023-03-01T10:41:17;19.10;;;14.35;;
24559;SDS011;12727;49.934;8.656;2023-03-01T10:43:47;17.50;;;13.77;;
24559;SDS011;12727;49.934;8.656;2023-03-01T10:49:05;20.23;;;12.57;;
24559;SDS011;12727;49.934;8.656;2023-03-01T10:51:32;17.75;;;13.23;;
24559;SDS011;12727;49.934;8.656;2023-03-01T10:53:58;20.15;;;13.77;;
24559;SDS011;12727;49.934;8.656;2023-03-01T10:56:23;19.52;;;13.30;;
24559;SDS011;12727;49.934;8.656;2023-03-01T11:01:25;17.17;;;13.00;;
24559;SDS011;12727;49.934;8.656;2023-03-01T11:04:30;19.80;;;12.65;;
24559;SDS011;12727;49.934;8.656;2023-03-01T11:06:57;20.30;;;13.98;;
24559;SDS011;12727;49.934;8.656;2023-03-01T11:09:24;20.23;;;13.90;;
24559;SDS011;12727;49.934;8.656;2023-03-01T11:11:56;19.80;;;13.45;;
24559;SDS011;12727;49.934;8.656;2023-03-01T11:14:25;19.30;;;14.50;;
24559;SDS011;12727;49.934;8.656;2023-03-01T11:17:11;18.67;;;13.23;;
24559;SDS011;12727;49.934;8.656;2023-03-01T11:20:06;17.92;;;12.70;;
24559;SDS011;12727;49.934;8.656;2023-03-01T11:22:41;20.92;;;13.85;;
24559;SDS011;12727;49.934;8.656;2023-03-01T11:25:20;19.48;;;13.73;;
24559;SDS011;12727;49.934;8.656;2023-03-01T11:27:50;18.88;;;13.38;;
24559;SDS011;12727;49.934;8.656;2023-03-01T11:35:30;17.63;;;12.20;;
24559;SDS011;12727;49.934;8.656;2023-03-01T11:40:53;18.38;;;13.10;;
24559;SDS011;12727;49.934;8.656;2023-03-01T11:49:03;15.98;;;11.07;;
24559;SDS011;12727;49.934;8.656;2023-03-01T11:54:27;16.33;;;10.88;;
24559;SDS011;12727;49.934;8.656;2023-03-01T11:59:57;16.75;;;11.25;;
24559;SDS011;12727;49.934;8.656;2023-03-01T12:02:48;16.75;;;10.93;;
24559;SDS011;12727;49.934;8.656;2023-03-01T12:10:43;17.65;;;9.68;;
24559;SDS011;12727;49.934;8.656;2023-03-01T12:16:31;16.77;;;10.10;;
24559;SDS011;12727;49.934;8.656;2023-03-01T12:19:33;17.50;;;11.00;;
24559;SDS011;12727;49.934;8.656;2023-03-01T12:22:10;12.63;;;7.68;;
24559;SDS011;12727;49.934;8.656;2023-03-01T12:25:07;15.82;;;10.27;;
24559;SDS011;12727;49.934;8.656;2023-03-01T12:33:51;15.85;;;9.75;;
24559;SDS011;12727;49.934;8.656;2023-03-01T12:39:23;14.80;;;9.48;;
24559;SDS011;12727;49.934;8.656;2023-03-01T12:42:17;12.88;;;8.20;;
24559;SDS011;12727;49.934;8.656;2023-03-01T12:51:08;12.13;;;7.75;;
24559;SDS011;12727;49.934;8.656;2023-03-01T12:53:40;13.35;;;8.45;;
24559;SDS011;12727;49.934;8.656;2023-03-01T12:56:13;18.85;;;10.00;;
24559;SDS011;12727;49.934;8.656;2023-03-01T13:15:32;15.18;;;9.85;;
24559;SDS011;12727;49.934;8.656;2023-03-01T13:20:53;19.70;;;10.55;;
24559;SDS011;12727;49.934;8.656;2023-03-01T13:23:25;10.90;;;5.28;;
24559;SDS011;12727;49.934;8.656;2023-03-01T13:31:02;14.77;;;9.30;;
24559;SDS011;12727;49.934;8.656;2023-03-01T13:35:55;15.10;;;10.30;;
24559;SDS011;12727;49.934;8.656;2023-03-01T13:41:14;12.95;;;8.10;;
24559;SDS011;12727;49.934;8.656;2023-03-01T13:43:43;14.27;;;7.95;;
24559;SDS011;12727;49.934;8.656;2023-03-01T13:46:18;13.73;;;9.27;;
24559;SDS011;12727;49.934;8.656;2023-03-01T13:48:48;14.13;;;9.27;;
24559;SDS011;12727;49.934;8.656;2023-03-01T13:51:20;14.40;;;8.55;;
24559;SDS011;12727;49.934;8.656;2023-03-01T13:53:50;12.48;;;7.88;;
24559;SDS011;12727;49.934;8.656;2023-03-01T13:56:18;12.82;;;8.80;;
24559;SDS011;12727;49.934;8.656;2023-03-01T13:59:02;13.90;;;8.73;;
24559;SDS011;12727;49.934;8.656;2023-03-01T14:01:33;13.48;;;8.40;;
24559;SDS011;12727;49.934;8.656;2023-03-01T14:04:00;14.27;;;8.77;;
24559;SDS011;12727;49.934;8.656;2023-03-01T14:06:28;13.73;;;9.02;;
24559;SDS011;12727;49.934;8.656;2023-03-01T14:09:04;12.82;;;8.20;;
24559;SDS011;12727;49.934;8.656;2023-03-01T14:16:55;13.32;;;7.50;;
24559;SDS011;12727;49.934;8.656;2023-03-01T14:22:17;8.73;;;5.32;;
24559;SDS011;12727;49.934;8.656;2023-03-01T14:24:49;12.13;;;7.60;;
24559;SDS011;12727;49.934;8.656;2023-03-01T14:27:19;15.32;;;7.70;;
24559;SDS011;12727;49.934;8.656;2023-03-01T14:29:58;12.65;;;8.15;;
24559;SDS011;12727;49.934;8.656;2023-03-01T14:32:27;15.45;;;8.32;;
24559;SDS011;12727;49.934;8.656;2023-03-01T14:34:54;12.23;;;7.43;;
24559;SDS011;12727;49.934;8.656;2023-03-01T14:37:24;10.98;;;6.97;;
24559;SDS011;12727;49.934;8.656;2023-03-01T14:39:52;12.73;;;7.85;;
24559;SDS011;12727;49.934;8.656;2023-03-01T14:42:19;10.13;;;6.80;;
24559;SDS011;12727;49.934;8.656;2023-03-01T14:44:47;14.48;;;9.15;;
24559;SDS011;12727;49.934;8.656;2023-03-01T14:47:37;14.80;;;9.30;;
24559;SDS011;12727;49.934;8.656;2023-03-01T14:52:37;10.55;;;6.50;;
24559;SDS011;12727;49.934;8.656;2023-03-01T14:55:07;13.70;;;9.07;;
24559;SDS011;12727;49.934;8.656;2023-03-01T14:57:49;12.85;;;8.23;;
24559;SDS011;12727;49.934;8.656;2023-03-01T15:00:18;11.23;;;6.70;;
24559;SDS011;12727;49.934;8.656;2023-03-01T15:02:54;16.90;;;8.45;;
24559;SDS011;12727;49.934;8.656;2023-03-01T15:05:27;15.07;;;9.35;;
24559;SDS011;12727;49.934;8.656;2023-03-01T15:07:58;15.15;;;8.85;;
24559;SDS011;12727;49.934;8.656;2023-03-01T15:10:30;11.60;;;7.90;;
24559;SDS011;12727;49.934;8.656;2023-03-01T15:13:11;13.02;;;7.80;;
24559;SDS011;12727;49.934;8.656;2023-03-01T15:15:47;12.93;;;8.23;;
24559;SDS011;12727;49.934;8.656;2023-03-01T15:18:20;14.75;;;8.85;;
24559;SDS011;12727;49.934;8.656;2023-03-01T15:20:48;13.25;;;8.88;;
24559;SDS011;12727;49.934;8.656;2023-03-01T15:23:25;14.05;;;9.25;;
24559;SDS011;12727;49.934;8.656;2023-03-01T15:25:53;13.73;;;8.27;;
24559;SDS011;12727;49.934;8.656;2023-03-01T15:28:24;14.63;;;8.82;;
24559;SDS011;12727;49.934;8.656;2023-03-01T15:31:21;13.30;;;8.18;;
24559;SDS011;12727;49.934;8.656;2023-03-01T15:33:48;14.35;;;7.95;;
24559;SDS011;12727;49.934;8.656;2023-03-01T15:36:29;12.43;;;7.95;;
24559;SDS011;12727;49.934;8.656;2023-03-01T15:39:02;13.57;;;7.28;;
24559;SDS011;12727;49.934;8.656;2023-03-01T15:41:38;12.90;;;8.23;;
24559;SDS011;12727;49.934;8.656;2023-03-01T15:44:25;12.10;;;7.13;;
24559;SDS011;12727;49.934;8.656;2023-03-01T15:46:52;14.50;;;8.95;;
24559;SDS011;12727;49.934;8.656;2023-03-01T15:49:35;14.60;;;8.07;;
24559;SDS011;12727;49.934;8.656;2023-03-01T15:52:10;13.80;;;8.77;;
24559;SDS011;12727;49.934;8.656;2023-03-01T15:54:44;11.75;;;7.78;;
24559;SDS011;12727;49.934;8.656;2023-03-01T15:57:13;12.15;;;7.68;;
24559;SDS011;12727;49.934;8.656;2023-03-01T15:59:40;11.43;;;7.85;;
24559;SDS011;12727;49.934;8.656;2023-03-01T16:02:10;14.25;;;8.05;;
24559;SDS011;12727;49.934;8.656;2023-03-01T16:04:38;14.32;;;7.97;;
24559;SDS011;12727;49.934;8.656;2023-03-01T16:07:04;13.43;;;8.40;;
24559;SDS011;12727;49.934;8.656;2023-03-01T16:09:30;13.75;;;8.68;;
24559;SDS011;12727;49.934;8.656;2023-03-01T16:11:56;13.50;;;8.25;;
24559;SDS011;12727;49.934;8.656;2023-03-01T16:14:26;12.45;;;7.15;;
24559;SDS011;12727;49.934;8.656;2023-03-01T16:16:52;14.60;;;8.10;;
24559;SDS011;12727;49.934;8.656;2023-03-01T16:19:18;15.05;;;8.75;;
24559;SDS011;12727;49.934;8.656;2023-03-01T16:21:44;18.52;;;8.90;;
24559;SDS011;12727;49.934;8.656;2023-03-01T16:24:11;15.68;;;8.82;;
24559;SDS011;12727;49.934;8.656;2023-03-01T16:26:38;13.50;;;8.02;;
24559;SDS011;12727;49.934;8.656;2023-03-01T16:29:03;14.40;;;8.25;;
24559;SDS011;12727;49.934;8.656;2023-03-01T16:31:29;15.02;;;8.70;;
24559;SDS011;12727;49.934;8.656;2023-03-01T16:33:56;12.55;;;8.57;;
24559;SDS011;12727;49.934;8.656;2023-03-01T16:36:24;14.60;;;7.90;;
24559;SDS011;12727;49.934;8.656;2023-03-01T16:38:53;18.77;;;9.70;;
24559;SDS011;12727;49.934;8.656;2023-03-01T16:41:21;14.98;;;9.85;;
24559;SDS011;12727;49.934;8.656;2023-03-01T16:43:48;17.25;;;10.30;;
24559;SDS011;12727;49.934;8.656;2023-03-01T16:46:23;16.95;;;10.23;;